Time;durP1;ratioP1;P1;durP2;ratioP2;P2;SDS_P1;SDS_P2;PMS_P1;PMS_P2;Temp;Humidity;BMP_temperature;BMP_pressure;BME280_temperature;BME280_humidity;BME280_pressure;Samples;Min_cycle;Max_cycle;Signal;HPM_P1;HPM_P2
2022/07/13 00:00:10;;;;;;;4.40;1.20;;;;;;;;;;5068993;28;20393;-71
2022/07/13 00:02:35;;;;;;;1.90;1.17;;;;;;;;;;5069038;28;20093;-70
2022/07/13 00:05:01;;;;;;;2.15;1.30;;;;;;;;;;5068925;28;20028;-70
2022/07/13 00:07:26;;;;;;;1.65;1.23;;;;;;;;;;5069151;28;20059;-70
2022/07/13 00:09:51;;;;;;;4.43;1.20;;;;;;;;;;5068458;28;20460;-70
2022/07/13 00:12:16;;;;;;;1.17;1.05;;;;;;;;;;5068971;28;20100;-70
2022/07/13 00:14:42;;;;;;;2.83;1.08;;;;;;;;;;5068888;28;20056;-70
2022/07/13 00:17:08;;;;;;;2.65;1.27;;;;;;;;;;5068871;28;20390;-71
2022/07/13 00:19:33;;;;;;;1.27;1.00;;;;;;;;;;5068415;28;20044;-71
2022/07/13 00:21:58;;;;;;;1.73;1.20;;;;;;;;;;5068619;28;20032;-70
2022/07/13 00:24:24;;;;;;;2.58;1.23;;;;;;;;;;5068452;28;20298;-70
2022/07/13 00:26:49;;;;;;;2.05;1.33;;;;;;;;;;5068525;28;20030;-70
2022/07/13 00:29:14;;;;;;;4.93;1.25;;;;;;;;;;5068581;28;20029;-72
2022/07/13 00:31:41;;;;;;;2.03;1.20;;;;;;;;;;5068757;28;20056;-71
2022/07/13 00:34:07;;;;;;;2.63;0.98;;;;;;;;;;5068538;28;20017;-70
2022/07/13 00:36:32;;;;;;;3.47;1.30;;;;;;;;;;5068868;28;20035;-71
2022/07/13 00:38:57;;;;;;;3.03;1.60;;;;;;;;;;5068313;28;20032;-70
2022/07/13 00:41:22;;;;;;;1.98;1.35;;;;;;;;;;5068603;28;20074;-71
2022/07/13 00:43:48;;;;;;;2.67;1.35;;;;;;;;;;5068368;28;20036;-70
2022/07/13 00:46:14;;;;;;;3.03;1.63;;;;;;;;;;5068285;28;20028;-70
2022/07/13 00:48:41;;;;;;;3.92;1.08;;;;;;;;;;5068260;28;20036;-70
2022/07/13 00:51:06;;;;;;;1.38;1.20;;;;;;;;;;5068328;28;20029;-70
2022/07/13 00:53:36;;;;;;;1.92;1.40;;;;;;;;;;5068213;28;20023;-70
2022/07/13 00:56:03;;;;;;;3.78;1.30;;;;;;;;;;5068245;28;20054;-70
2022/07/13 00:58:29;;;;;;;3.72;1.50;;;;;;;;;;5067816;28;20036;-71
2022/07/13 01:00:55;;;;;;;1.48;1.08;;;;;;;;;;5068266;28;20397;-70
2022/07/13 01:03:21;;;;;;;2.55;1.25;;;;;;;;;;5068220;28;20024;-70
2022/07/13 01:05:47;;;;;;;3.13;1.10;;;;;;;;;;5067627;28;20039;-70
2022/07/13 01:08:12;;;;;;;1.70;1.30;;;;;;;;;;5068644;28;20055;-70
2022/07/13 01:10:38;;;;;;;2.03;1.27;;;;;;;;;;5068175;28;20466;-70
2022/07/13 01:13:04;;;;;;;2.03;1.38;;;;;;;;;;5068148;28;20055;-71
2022/07/13 01:15:31;;;;;;;2.70;1.50;;;;;;;;;;5068132;28;20021;-73
2022/07/13 01:17:57;;;;;;;4.05;1.70;;;;;;;;;;5067749;28;20020;-74
2022/07/13 01:20:23;;;;;;;1.58;1.40;;;;;;;;;;5067797;28;20601;-72
2022/07/13 01:22:52;;;;;;;2.40;1.48;;;;;;;;;;5067924;28;20144;-71
2022/07/13 01:25:18;;;;;;;1.90;1.60;;;;;;;;;;5067858;28;20028;-71
2022/07/13 01:27:46;;;;;;;1.33;1.23;;;;;;;;;;5067821;28;20107;-71
2022/07/13 01:30:12;;;;;;;4.40;1.50;;;;;;;;;;5067904;28;20031;-72
2022/07/13 01:32:46;;;;;;;2.10;1.52;;;;;;;;;;5068224;28;20028;-71
2022/07/13 01:35:11;;;;;;;1.30;1.20;;;;;;;;;;5067996;28;20482;-71
2022/07/13 01:37:38;;;;;;;2.78;1.48;;;;;;;;;;5067921;28;20029;-72
2022/07/13 01:40:03;;;;;;;3.78;1.40;;;;;;;;;;5067651;28;20059;-71
2022/07/13 01:42:28;;;;;;;3.20;1.50;;;;;;;;;;5068078;28;20028;-71
2022/07/13 01:44:54;;;;;;;2.03;1.05;;;;;;;;;;5067566;28;20039;-70
2022/07/13 01:47:20;;;;;;;1.85;1.38;;;;;;;;;;5067991;28;20072;-71
2022/07/13 01:49:45;;;;;;;1.58;1.30;;;;;;;;;;5067287;28;20029;-71
2022/07/13 01:52:10;;;;;;;2.60;1.55;;;;;;;;;;5067600;28;20282;-71
2022/07/13 01:54:35;;;;;;;3.10;1.67;;;;;;;;;;5067793;28;20024;-73
2022/07/13 01:57:01;;;;;;;1.88;1.25;;;;;;;;;;5067458;28;20052;-71
2022/07/13 01:59:26;;;;;;;2.72;1.30;;;;;;;;;;5067586;28;20517;-70
2022/07/13 02:01:53;;;;;;;1.25;1.15;;;;;;;;;;5067699;28;20152;-71
2022/07/13 02:04:18;;;;;;;3.15;1.40;;;;;;;;;;5067710;28;20027;-70
2022/07/13 02:06:43;;;;;;;2.97;1.30;;;;;;;;;;5067401;28;20029;-70
2022/07/13 02:09:08;;;;;;;2.50;1.35;;;;;;;;;;5067810;28;20047;-70
2022/07/13 02:11:34;;;;;;;3.22;1.40;;;;;;;;;;5071115;28;20086;-72
2022/07/13 02:13:59;;;;;;;1.60;1.27;;;;;;;;;;5071343;28;20040;-71
2022/07/13 02:16:24;;;;;;;1.80;1.10;;;;;;;;;;5071037;28;20103;-71
2022/07/13 02:18:49;;;;;;;3.08;1.35;;;;;;;;;;5071317;28;20027;-70
2022/07/13 02:21:15;;;;;;;2.05;1.20;;;;;;;;;;5070872;28;20035;-71
2022/07/13 02:23:40;;;;;;;1.73;1.40;;;;;;;;;;5071120;28;20074;-70
2022/07/13 02:26:06;;;;;;;4.60;1.63;;;;;;;;;;5070882;28;20479;-71
2022/07/13 02:28:31;;;;;;;2.42;1.33;;;;;;;;;;5070783;28;20094;-71
2022/07/13 02:30:56;;;;;;;1.98;1.30;;;;;;;;;;5070829;28;20056;-71
2022/07/13 02:33:22;;;;;;;2.10;1.25;;;;;;;;;;5071156;28;20082;-70
2022/07/13 02:35:47;;;;;;;1.42;1.33;;;;;;;;;;5070473;28;20114;-69
2022/07/13 02:38:12;;;;;;;2.30;1.60;;;;;;;;;;5070761;28;20047;-71
2022/07/13 02:40:38;;;;;;;3.05;1.40;;;;;;;;;;5070469;28;20091;-72
2022/07/13 02:43:03;;;;;;;4.57;1.70;;;;;;;;;;5070587;28;20503;-71
2022/07/13 02:45:28;;;;;;;4.03;1.45;;;;;;;;;;5070368;28;20111;-70
2022/07/13 02:47:54;;;;;;;2.65;1.30;;;;;;;;;;5070393;28;20036;-70
2022/07/13 02:50:19;;;;;;;1.98;1.30;;;;;;;;;;5070175;28;20052;-71
2022/07/13 02:52:44;;;;;;;2.63;1.50;;;;;;;;;;5070359;28;20478;-72
2022/07/13 02:55:10;;;;;;;1.98;1.77;;;;;;;;;;5070396;28;20031;-71
2022/07/13 02:57:35;;;;;;;2.50;1.48;;;;;;;;;;5070365;28;20036;-71
2022/07/13 03:00:00;;;;;;;2.20;1.60;;;;;;;;;;5070301;28;20085;-73
2022/07/13 03:02:26;;;;;;;2.50;1.65;;;;;;;;;;5070200;28;20028;-71
2022/07/13 03:04:51;;;;;;;1.50;1.40;;;;;;;;;;5070667;28;20028;-71
2022/07/13 03:07:16;;;;;;;1.80;1.50;;;;;;;;;;5070103;28;20098;-71
2022/07/13 03:09:42;;;;;;;1.95;1.45;;;;;;;;;;5070029;28;20024;-71
2022/07/13 03:12:07;;;;;;;2.20;1.42;;;;;;;;;;5070306;28;20390;-72
2022/07/13 03:14:32;;;;;;;1.85;1.48;;;;;;;;;;5070235;28;20024;-71
2022/07/13 03:16:58;;;;;;;4.00;1.70;;;;;;;;;;5070050;28;20028;-72
2022/07/13 03:19:23;;;;;;;2.03;1.30;;;;;;;;;;5069749;28;20024;-72
2022/07/13 03:21:49;;;;;;;2.25;1.45;;;;;;;;;;5069922;28;20024;-72
2022/07/13 03:24:14;;;;;;;2.05;1.38;;;;;;;;;;5069819;28;20069;-72
2022/07/13 03:26:39;;;;;;;3.35;1.38;;;;;;;;;;5069685;28;20489;-72
2022/07/13 03:29:04;;;;;;;4.55;1.40;;;;;;;;;;5069670;28;20107;-71
2022/07/13 03:31:30;;;;;;;1.48;1.38;;;;;;;;;;5069688;28;20096;-71
2022/07/13 03:33:55;;;;;;;4.22;1.48;;;;;;;;;;5069673;28;20017;-71
2022/07/13 03:36:20;;;;;;;1.20;1.10;;;;;;;;;;5069525;28;20275;-72
2022/07/13 03:38:45;;;;;;;1.83;1.50;;;;;;;;;;5069490;28;20475;-71
2022/07/13 03:41:11;;;;;;;3.65;1.75;;;;;;;;;;5069809;28;20028;-72
2022/07/13 03:43:36;;;;;;;4.05;1.60;;;;;;;;;;5069934;28;20482;-73
2022/07/13 03:46:01;;;;;;;2.10;1.40;;;;;;;;;;5069582;28;20039;-71
2022/07/13 03:48:27;;;;;;;2.20;1.50;;;;;;;;;;5069437;28;20119;-71
2022/07/13 03:50:52;;;;;;;2.67;1.50;;;;;;;;;;5069631;28;20028;-71
2022/07/13 03:53:17;;;;;;;1.52;1.40;;;;;;;;;;5070124;28;20371;-71
2022/07/13 03:55:43;;;;;;;4.95;1.58;;;;;;;;;;5069714;28;20110;-71
2022/07/13 03:58:10;;;;;;;2.03;1.60;;;;;;;;;;5069699;28;20121;-71
2022/07/13 04:00:35;;;;;;;2.95;1.55;;;;;;;;;;5069489;28;20100;-71
2022/07/13 04:03:01;;;;;;;3.22;1.55;;;;;;;;;;5069217;28;20110;-71
2022/07/13 04:05:26;;;;;;;1.67;1.52;;;;;;;;;;5069045;28;20477;-72
2022/07/13 04:07:52;;;;;;;2.55;1.40;;;;;;;;;;5068818;28;20036;-71
2022/07/13 04:10:21;;;;;;;2.60;1.70;;;;;;;;;;5068902;28;20378;-71
2022/07/13 04:12:47;;;;;;;3.13;1.70;;;;;;;;;;5069165;28;20020;-71
2022/07/13 04:15:14;;;;;;;1.92;1.63;;;;;;;;;;5069220;28;20052;-71
2022/07/13 04:17:40;;;;;;;2.53;1.42;;;;;;;;;;5068798;28;20150;-71
2022/07/13 04:20:06;;;;;;;3.05;1.90;;;;;;;;;;5069018;28;20025;-71
2022/07/13 04:22:31;;;;;;;5.72;2.00;;;;;;;;;;5068696;28;20037;-70
2022/07/13 04:24:57;;;;;;;1.73;1.63;;;;;;;;;;5068628;28;20524;-70
2022/07/13 04:27:22;;;;;;;1.92;1.67;;;;;;;;;;5068573;28;20024;-71
2022/07/13 04:29:48;;;;;;;2.30;1.75;;;;;;;;;;5068488;28;20033;-72
2022/07/13 04:32:13;;;;;;;2.58;1.70;;;;;;;;;;5068134;28;20028;-71
2022/07/13 04:34:38;;;;;;;4.57;1.63;;;;;;;;;;5068459;28;20027;-70
2022/07/13 04:37:04;;;;;;;4.60;1.63;;;;;;;;;;5068463;28;20031;-71
2022/07/13 04:39:29;;;;;;;2.78;1.50;;;;;;;;;;5068488;28;20583;-70
2022/07/13 04:41:54;;;;;;;2.03;1.80;;;;;;;;;;5067152;28;20032;-69
2022/07/13 04:44:20;;;;;;;4.72;1.70;;;;;;;;;;5068480;28;20031;-71
2022/07/13 04:46:45;;;;;;;3.85;1.60;;;;;;;;;;5068224;28;20036;-70
2022/07/13 04:49:11;;;;;;;2.45;1.63;;;;;;;;;;5068619;28;20054;-69
2022/07/13 04:51:36;;;;;;;3.25;1.67;;;;;;;;;;5068216;28;20030;-71
2022/07/13 04:54:02;;;;;;;2.10;1.70;;;;;;;;;;5066936;28;20035;-71
2022/07/13 04:56:27;;;;;;;2.65;1.60;;;;;;;;;;5068285;28;20752;-70
2022/07/13 04:58:52;;;;;;;11.75;2.20;;;;;;;;;;5068079;28;20107;-71
2022/07/13 05:01:18;;;;;;;5.85;2.45;;;;;;;;;;5066877;28;20482;-70
2022/07/13 05:03:43;;;;;;;2.80;2.30;;;;;;;;;;5068080;28;20120;-70
2022/07/13 05:06:08;;;;;;;3.38;2.55;;;;;;;;;;5068202;28;20024;-71
2022/07/13 05:08:34;;;;;;;3.60;2.75;;;;;;;;;;5068051;28;20267;-70
2022/07/13 05:10:59;;;;;;;2.53;2.30;;;;;;;;;;5068203;28;20029;-71
2022/07/13 05:13:24;;;;;;;3.38;2.10;;;;;;;;;;5068284;28;20040;-71
2022/07/13 05:15:49;;;;;;;3.65;2.42;;;;;;;;;;5068006;28;20073;-71
2022/07/13 05:18:15;;;;;;;4.07;2.58;;;;;;;;;;5067700;28;20040;-71
2022/07/13 05:20:40;;;;;;;3.33;2.38;;;;;;;;;;5068170;28;20386;-71
2022/07/13 05:23:05;;;;;;;2.70;2.10;;;;;;;;;;5068333;28;20047;-70
2022/07/13 05:25:30;;;;;;;4.47;2.00;;;;;;;;;;5067965;28;20033;-70
2022/07/13 05:27:56;;;;;;;4.55;2.00;;;;;;;;;;5067603;28;20539;-71
2022/07/13 05:30:21;;;;;;;3.03;1.73;;;;;;;;;;5067920;28;20035;-71
2022/07/13 05:32:47;;;;;;;3.15;1.70;;;;;;;;;;5067439;28;20035;-70
2022/07/13 05:35:13;;;;;;;3.70;1.60;;;;;;;;;;5068114;28;20012;-71
2022/07/13 05:37:38;;;;;;;2.10;1.58;;;;;;;;;;5067936;28;20794;-71
2022/07/13 05:40:04;;;;;;;3.10;1.45;;;;;;;;;;5067740;28;20033;-71
2022/07/13 05:42:30;;;;;;;2.15;1.75;;;;;;;;;;5067726;28;20401;-69
2022/07/13 05:44:56;;;;;;;2.35;1.60;;;;;;;;;;5069645;28;20028;-70
2022/07/13 05:47:21;;;;;;;2.22;1.60;;;;;;;;;;5071427;28;20032;-70
2022/07/13 05:49:46;;;;;;;2.60;1.60;;;;;;;;;;5071279;28;20035;-71
2022/07/13 05:52:12;;;;;;;1.90;1.70;;;;;;;;;;5071697;28;20027;-71
2022/07/13 05:54:37;;;;;;;2.28;1.50;;;;;;;;;;5071503;28;20059;-70
2022/07/13 05:57:02;;;;;;;2.97;1.73;;;;;;;;;;5071173;28;20016;-71
2022/07/13 05:59:28;;;;;;;5.82;2.38;;;;;;;;;;5070734;28;20025;-70
2022/07/13 06:01:53;;;;;;;4.72;1.90;;;;;;;;;;5071484;28;20067;-71
2022/07/13 06:04:19;;;;;;;3.42;1.70;;;;;;;;;;5071052;28;20541;-71
2022/07/13 06:06:44;;;;;;;1.73;1.40;;;;;;;;;;5072971;28;20024;-70
2022/07/13 06:09:10;;;;;;;3.72;1.80;;;;;;;;;;5065594;28;20032;-69
2022/07/13 06:11:35;;;;;;;2.03;1.83;;;;;;;;;;5067482;28;20562;-70
2022/07/13 06:14:00;;;;;;;2.75;1.70;;;;;;;;;;5070704;28;20055;-69
2022/07/13 06:16:26;;;;;;;3.85;1.70;;;;;;;;;;5070557;28;20031;-69
2022/07/13 06:18:51;;;;;;;3.72;1.70;;;;;;;;;;5071584;28;20027;-70
2022/07/13 06:21:18;;;;;;;3.75;1.70;;;;;;;;;;5065976;28;20090;-69
2022/07/13 06:23:43;;;;;;;3.42;1.83;;;;;;;;;;5065644;28;20036;-72
2022/07/13 06:26:08;;;;;;;2.95;2.13;;;;;;;;;;5068042;28;20028;-70
2022/07/13 06:28:34;;;;;;;2.97;2.10;;;;;;;;;;5069494;28;20032;-71
2022/07/13 06:30:59;;;;;;;4.30;2.30;;;;;;;;;;5066729;28;20062;-70
2022/07/13 06:33:24;;;;;;;4.00;1.85;;;;;;;;;;5067422;28;20030;-70
2022/07/13 06:35:50;;;;;;;1.98;1.83;;;;;;;;;;5066582;28;20470;-72
2022/07/13 06:38:16;;;;;;;4.35;2.17;;;;;;;;;;5066677;28;20107;-71
2022/07/13 06:40:41;;;;;;;2.38;1.98;;;;;;;;;;5071099;28;20611;-72
2022/07/13 06:43:06;;;;;;;2.60;2.20;;;;;;;;;;5066786;28;20032;-71
2022/07/13 06:45:32;;;;;;;3.63;2.17;;;;;;;;;;5067205;28;20024;-73
2022/07/13 06:47:57;;;;;;;5.07;2.53;;;;;;;;;;5066012;28;20546;-71
2022/07/13 06:50:22;;;;;;;3.90;2.10;;;;;;;;;;5066759;28;20043;-72
2022/07/13 06:52:48;;;;;;;5.35;2.55;;;;;;;;;;5066605;28;20264;-72
2022/07/13 06:55:13;;;;;;;2.17;1.70;;;;;;;;;;5067503;28;20442;-72
2022/07/13 06:57:39;;;;;;;3.92;1.70;;;;;;;;;;5070844;28;20225;-72
2022/07/13 07:00:06;;;;;;;3.40;1.85;;;;;;;;;;5065818;28;20033;-72
2022/07/13 07:02:32;;;;;;;4.90;1.83;;;;;;;;;;5068410;28;20058;-72
2022/07/13 07:04:57;;;;;;;3.90;1.77;;;;;;;;;;5067158;28;20025;-72
2022/07/13 07:07:22;;;;;;;2.50;1.90;;;;;;;;;;5066103;28;20085;-75
2022/07/13 07:09:48;;;;;;;2.58;1.60;;;;;;;;;;5066481;28;20726;-73
2022/07/13 07:12:13;;;;;;;2.58;1.80;;;;;;;;;;5069162;28;20618;-73
2022/07/13 07:14:38;;;;;;;4.17;2.00;;;;;;;;;;5065873;28;20024;-73
2022/07/13 07:17:04;;;;;;;2.05;1.40;;;;;;;;;;5065540;28;20269;-74
2022/07/13 07:19:29;;;;;;;4.80;1.45;;;;;;;;;;5066006;28;20036;-73
2022/07/13 07:21:55;;;;;;;2.97;1.40;;;;;;;;;;5066308;28;20127;-72
2022/07/13 07:24:21;;;;;;;2.95;1.65;;;;;;;;;;5065935;28;20052;-72
2022/07/13 07:26:47;;;;;;;4.72;1.52;;;;;;;;;;5068352;28;20028;-72
2022/07/13 07:29:14;;;;;;;2.75;1.50;;;;;;;;;;5065967;28;20402;-72
2022/07/13 07:31:39;;;;;;;1.33;1.20;;;;;;;;;;5064194;28;20032;-73
2022/07/13 07:34:04;;;;;;;2.70;1.20;;;;;;;;;;5065555;28;20516;-72
2022/07/13 07:36:30;;;;;;;6.32;1.52;;;;;;;;;;5066223;28;20037;-71
2022/07/13 07:38:55;;;;;;;2.47;1.25;;;;;;;;;;5063513;28;20413;-71
2022/07/13 07:41:20;;;;;;;2.43;1.47;;;;;;;;;;5067165;28;20028;-72
2022/07/13 07:43:46;;;;;;;4.53;1.55;;;;;;;;;;5065649;28;20859;-71
2022/07/13 07:46:12;;;;;;;4.82;1.67;;;;;;;;;;5063834;28;20016;-71
2022/07/13 07:48:37;;;;;;;4.22;1.65;;;;;;;;;;5065870;28;20036;-71
2022/07/13 07:51:04;;;;;;;2.70;1.40;;;;;;;;;;5065289;28;20024;-72
2022/07/13 07:53:29;;;;;;;3.63;1.30;;;;;;;;;;5065444;28;20693;-71
2022/07/13 07:55:54;;;;;;;2.97;1.30;;;;;;;;;;5065125;28;20017;-71
2022/07/13 07:58:20;;;;;;;1.55;1.27;;;;;;;;;;5065611;28;20039;-71
2022/07/13 08:00:45;;;;;;;3.23;1.30;;;;;;;;;;5065319;28;20080;-71
2022/07/13 08:03:10;;;;;;;3.07;1.53;;;;;;;;;;5064264;28;20281;-72
2022/07/13 08:05:36;;;;;;;3.58;1.25;;;;;;;;;;5063569;28;20265;-71
2022/07/13 08:08:02;;;;;;;2.60;1.20;;;;;;;;;;5064739;28;20061;-71
2022/07/13 08:10:28;;;;;;;3.85;1.50;;;;;;;;;;5062984;28;20024;-72
2022/07/13 08:12:53;;;;;;;2.92;1.65;;;;;;;;;;5064480;28;20028;-72
2022/07/13 08:15:19;;;;;;;3.40;1.38;;;;;;;;;;5064649;28;20101;-72
2022/07/13 08:17:45;;;;;;;1.58;1.40;;;;;;;;;;5065268;28;20494;-72
2022/07/13 08:20:11;;;;;;;2.80;1.70;;;;;;;;;;5064275;28;20475;-72
2022/07/13 08:22:38;;;;;;;4.75;1.60;;;;;;;;;;5065197;28;20230;-71
2022/07/13 08:25:04;;;;;;;3.90;1.80;;;;;;;;;;5064254;28;20371;-72
2022/07/13 08:27:30;;;;;;;4.05;1.75;;;;;;;;;;5065164;28;20039;-72
2022/07/13 08:29:57;;;;;;;4.95;1.73;;;;;;;;;;5064106;28;20442;-72
2022/07/13 08:32:22;;;;;;;6.80;1.83;;;;;;;;;;5064661;28;20028;-73
2022/07/13 08:40:18;;;;;;;4.03;1.58;;;;;;;;;;5063273;28;20043;-72
2022/07/13 08:42:44;;;;;;;2.10;1.60;;;;;;;;;;5065114;28;20056;-72
2022/07/13 08:45:09;;;;;;;3.55;1.70;;;;;;;;;;5064510;28;20463;-72
2022/07/13 08:47:35;;;;;;;3.53;1.73;;;;;;;;;;5064876;28;20501;-71
2022/07/13 08:50:08;;;;;;;5.28;1.88;;;;;;;;;;5064234;28;20252;-72
2022/07/13 08:52:38;;;;;;;5.60;1.60;;;;;;;;;;5064879;28;20139;-71
2022/07/13 08:55:05;;;;;;;3.67;1.50;;;;;;;;;;5064417;28;20023;-71
2022/07/13 08:57:35;;;;;;;4.82;1.70;;;;;;;;;;5064821;28;20024;-71
2022/07/13 09:00:07;;;;;;;7.10;1.85;;;;;;;;;;5064112;28;20025;-71
2022/07/13 09:02:32;;;;;;;6.40;1.80;;;;;;;;;;5063045;28;20031;-71
2022/07/13 09:05:01;;;;;;;4.50;1.70;;;;;;;;;;5065012;28;20032;-71
2022/07/13 09:07:26;;;;;;;3.28;1.50;;;;;;;;;;5064973;28;20024;-71
2022/07/13 09:09:55;;;;;;;2.73;1.73;;;;;;;;;;5063268;28;20031;-71
2022/07/13 09:12:23;;;;;;;7.07;1.92;;;;;;;;;;5064815;28;20653;-71
2022/07/13 09:14:51;;;;;;;7.07;1.67;;;;;;;;;;5064632;28;20021;-72
2022/07/13 09:17:31;;;;;;;3.40;1.60;;;;;;;;;;5063930;28;20024;-70
2022/07/13 09:19:57;;;;;;;9.38;1.70;;;;;;;;;;5066107;28;20032;-70
2022/07/13 09:22:22;;;;;;;9.65;1.90;;;;;;;;;;5067003;28;20029;-71
2022/07/13 09:24:50;;;;;;;4.63;1.40;;;;;;;;;;5068179;28;20035;-70
2022/07/13 09:27:16;;;;;;;6.25;1.60;;;;;;;;;;5067758;28;20028;-72
2022/07/13 09:29:42;;;;;;;4.18;1.45;;;;;;;;;;5068463;28;20024;-71
2022/07/13 09:32:10;;;;;;;4.68;1.45;;;;;;;;;;5067781;28;20482;-71
2022/07/13 09:34:44;;;;;;;1.67;1.40;;;;;;;;;;5069843;28;20387;-71
2022/07/13 09:37:10;;;;;;;5.82;1.50;;;;;;;;;;5065625;28;20086;-73
2022/07/13 09:40:06;;;;;;;6.97;1.67;;;;;;;;;;5067779;28;20025;-70
2022/07/13 09:42:37;;;;;;;5.18;1.55;;;;;;;;;;5068271;28;20107;-70
2022/07/13 09:47:53;;;;;;;5.38;1.75;;;;;;;;;;5068957;28;20059;-72
2022/07/13 09:50:24;;;;;;;4.70;1.60;;;;;;;;;;5068063;28;20032;-71
2022/07/13 09:52:52;;;;;;;11.57;4.40;;;;;;;;;;5068074;28;20028;-70
2022/07/13 09:55:22;;;;;;;6.97;1.63;;;;;;;;;;5067495;28;20047;-70
2022/07/13 09:57:52;;;;;;;3.87;1.70;;;;;;;;;;5068222;28;20047;-71
2022/07/13 10:00:17;;;;;;;5.95;1.42;;;;;;;;;;5067396;28;20264;-70
2022/07/13 10:02:47;;;;;;;5.47;1.55;;;;;;;;;;5066741;28;20119;-70
2022/07/13 10:05:17;;;;;;;6.93;1.90;;;;;;;;;;5067920;28;20064;-72
2022/07/13 10:07:43;;;;;;;7.95;1.70;;;;;;;;;;5067957;28;20181;-72
2022/07/13 10:10:11;;;;;;;6.55;1.60;;;;;;;;;;5065405;28;20032;-72
2022/07/13 10:12:37;;;;;;;4.13;1.33;;;;;;;;;;5068539;28;20025;-71
2022/07/13 10:15:03;;;;;;;3.53;1.27;;;;;;;;;;5067466;28;20293;-72
2022/07/13 10:17:29;;;;;;;5.28;1.13;;;;;;;;;;5067234;28;20070;-70
2022/07/13 10:19:54;;;;;;;2.95;1.10;;;;;;;;;;5065346;28;20024;-71
2022/07/13 10:22:23;;;;;;;5.23;1.30;;;;;;;;;;5066532;28;20059;-72
2022/07/13 10:24:52;;;;;;;1.55;1.08;;;;;;;;;;5061988;28;20028;-71
2022/07/13 10:27:25;;;;;;;3.67;1.40;;;;;;;;;;5067759;28;20036;-70
2022/07/13 10:30:03;;;;;;;3.85;1.10;;;;;;;;;;5065388;28;20484;-70
2022/07/13 10:32:33;;;;;;;1.80;1.05;;;;;;;;;;5066375;28;20028;-70
2022/07/13 10:35:01;;;;;;;1.88;0.88;;;;;;;;;;5066786;28;20469;-72
2022/07/13 10:37:27;;;;;;;3.05;1.10;;;;;;;;;;5067296;28;20302;-73
2022/07/13 10:40:15;;;;;;;3.80;1.00;;;;;;;;;;5067574;28;20382;-68
2022/07/13 10:42:53;;;;;;;3.55;0.93;;;;;;;;;;5066831;28;20032;-70
2022/07/13 10:45:48;;;;;;;2.78;0.98;;;;;;;;;;5067449;28;20457;-70
2022/07/13 10:48:22;;;;;;;1.80;1.10;;;;;;;;;;5066884;28;20020;-66
2022/07/13 10:50:59;;;;;;;3.13;1.00;;;;;;;;;;5067139;28;20620;-67
2022/07/13 10:53:40;;;;;;;4.65;1.38;;;;;;;;;;5067055;28;20063;-68
2022/07/13 10:56:17;;;;;;;1.10;0.95;;;;;;;;;;5067179;28;20032;-67
2022/07/13 10:58:43;;;;;;;2.38;0.88;;;;;;;;;;5066681;28;20036;-69
2022/07/13 11:01:49;;;;;;;1.20;1.00;;;;;;;;;;5067535;28;20179;-67
2022/07/13 11:04:18;;;;;;;0.82;0.80;;;;;;;;;;4985514;28;20339;-67
2022/07/13 11:07:06;;;;;;;1.48;0.85;;;;;;;;;;4984819;28;20041;-69
2022/07/13 11:09:32;;;;;;;1.70;0.90;;;;;;;;;;5038140;28;20130;-68
2022/07/13 11:11:57;;;;;;;1.50;0.77;;;;;;;;;;5066572;28;20442;-66
2022/07/13 11:14:39;;;;;;;3.42;0.80;;;;;;;;;;5066754;28;20028;-70
2022/07/13 11:17:33;;;;;;;5.07;1.02;;;;;;;;;;5066644;28;20024;-70
2022/07/13 11:20:07;;;;;;;3.55;0.80;;;;;;;;;;5048969;28;20440;-68
2022/07/13 11:25:38;;;;;;;1.85;0.90;;;;;;;;;;5067064;28;20090;-70
2022/07/13 11:28:12;;;;;;;2.35;0.90;;;;;;;;;;5066634;28;20021;-68
2022/07/13 11:30:43;;;;;;;4.82;0.90;;;;;;;;;;5066950;28;20446;-68
2022/07/13 11:33:11;;;;;;;;;;;;;;;;;;5065635;28;20025;-67
2022/07/13 11:35:37;;;;;;;2.35;1.10;;;;;;;;;;5066254;28;19912;-68
2022/07/13 11:38:03;;;;;;;3.03;0.90;;;;;;;;;;5066412;28;20028;-68
2022/07/13 11:40:30;;;;;;;1.63;0.80;;;;;;;;;;5066235;28;20028;-68
2022/07/13 11:42:58;;;;;;;1.30;0.90;;;;;;;;;;5066025;28;20028;-69
2022/07/13 11:45:26;;;;;;;2.42;0.80;;;;;;;;;;5066785;28;20027;-68
2022/07/13 11:47:56;;;;;;;2.20;0.70;;;;;;;;;;5054918;28;20124;-73
2022/07/13 11:50:21;;;;;;;1.27;0.90;;;;;;;;;;5052974;28;20025;-72
2022/07/13 11:52:46;;;;;;;2.20;1.00;;;;;;;;;;5059683;28;20527;-68
2022/07/13 11:55:12;;;;;;;2.23;1.10;;;;;;;;;;5058797;28;20055;-67
2022/07/13 11:57:37;;;;;;;3.97;0.97;;;;;;;;;;5054272;28;20435;-69
2022/07/13 12:00:08;;;;;;;1.77;1.00;;;;;;;;;;5062402;28;20268;-69
2022/07/13 12:02:34;;;;;;;1.95;1.17;;;;;;;;;;5040567;28;20089;-68
2022/07/13 12:05:00;;;;;;;2.15;0.90;;;;;;;;;;5050969;28;20111;-67
2022/07/13 12:07:30;;;;;;;1.73;0.93;;;;;;;;;;5061491;28;20128;-71
2022/07/13 12:09:59;;;;;;;1.15;0.90;;;;;;;;;;5058337;28;20029;-71
2022/07/13 12:12:30;;;;;;;2.58;0.90;;;;;;;;;;5056671;28;20452;-70
2022/07/13 12:14:56;;;;;;;0.80;0.80;;;;;;;;;;5057507;28;20071;-68
2022/07/13 12:17:23;;;;;;;3.25;0.98;;;;;;;;;;5057852;28;20029;-67
2022/07/13 12:19:49;;;;;;;3.83;0.90;;;;;;;;;;5058448;28;20028;-70
2022/07/13 12:22:19;;;;;;;4.57;1.00;;;;;;;;;;5058925;28;20424;-69
2022/07/13 12:24:45;;;;;;;5.00;1.58;;;;;;;;;;5055649;28;20503;-67
2022/07/13 12:27:26;;;;;;;3.47;1.00;;;;;;;;;;5056871;28;20032;-68
2022/07/13 12:30:04;;;;;;;;;;;;;;;;;;5058885;28;20533;-71
2022/07/13 12:32:30;;;;;;;1.83;1.13;;;;;;;;;;5060200;28;19917;-73
2022/07/13 12:34:55;;;;;;;1.48;0.90;;;;;;;;;;5060935;28;20470;-68
2022/07/13 12:37:37;;;;;;;2.27;0.93;;;;;;;;;;5060343;28;20502;-70
2022/07/13 12:40:04;;;;;;;1.90;0.95;;;;;;;;;;5059009;28;20086;-69
2022/07/13 12:42:29;;;;;;;4.20;1.25;;;;;;;;;;5051069;28;20500;-70
2022/07/13 12:44:55;;;;;;;3.43;1.07;;;;;;;;;;5057901;28;20115;-69
2022/07/13 12:47:24;;;;;;;3.63;1.10;;;;;;;;;;5058092;28;20276;-70
2022/07/13 12:49:50;;;;;;;1.77;0.90;;;;;;;;;;5058376;28;20043;-69
2022/07/13 12:52:15;;;;;;;5.78;1.23;;;;;;;;;;5058262;28;20482;-68
2022/07/13 12:54:51;;;;;;;7.80;1.73;;;;;;;;;;5058515;28;20032;-72
2022/07/13 12:57:22;;;;;;;1.33;1.20;;;;;;;;;;5058384;28;20328;-74
2022/07/13 12:59:59;;;;;;;2.92;1.10;;;;;;;;;;5058357;28;20103;-67
2022/07/13 13:02:25;;;;;;;2.08;1.00;;;;;;;;;;5058987;28;20086;-68
2022/07/13 13:04:50;;;;;;;3.15;1.10;;;;;;;;;;5058858;28;20486;-68
2022/07/13 13:07:16;;;;;;;2.13;1.30;;;;;;;;;;5060246;28;20032;-73
2022/07/13 13:09:45;;;;;;;2.28;1.05;;;;;;;;;;5060676;28;20352;-72
2022/07/13 13:12:11;;;;;;;3.90;1.15;;;;;;;;;;5059608;28;20028;-72
2022/07/13 13:14:36;;;;;;;1.73;1.10;;;;;;;;;;5059051;28;20033;-70
2022/07/13 13:17:01;;;;;;;4.30;1.20;;;;;;;;;;5058014;28;20521;-71
2022/07/13 13:19:26;;;;;;;3.23;1.17;;;;;;;;;;5057809;28;20506;-70
2022/07/13 13:21:52;;;;;;;1.83;1.00;;;;;;;;;;5056956;28;20359;-70
2022/07/13 13:24:17;;;;;;;2.33;0.87;;;;;;;;;;5057749;28;20035;-73
2022/07/13 13:26:46;;;;;;;3.95;1.20;;;;;;;;;;5056764;28;20352;-71
2022/07/13 13:31:56;;;;;;;4.15;1.20;;;;;;;;;;5058786;28;20427;-73
2022/07/13 13:34:22;;;;;;;3.03;1.00;;;;;;;;;;5057910;28;20119;-72
2022/07/13 13:36:51;;;;;;;4.10;1.20;;;;;;;;;;5059216;28;20032;-71
2022/07/13 13:39:19;;;;;;;3.78;1.20;;;;;;;;;;5059593;28;20482;-72
2022/07/13 13:41:45;;;;;;;1.83;1.00;;;;;;;;;;5059513;28;20093;-71
2022/07/13 13:44:11;;;;;;;3.65;1.10;;;;;;;;;;5062548;28;20032;-71
2022/07/13 13:46:36;;;;;;;5.80;1.00;;;;;;;;;;5068351;28;20081;-72
2022/07/13 13:49:02;;;;;;;1.60;0.85;;;;;;;;;;5056993;28;20101;-69
2022/07/13 13:51:27;;;;;;;1.10;0.90;;;;;;;;;;5056913;28;20611;-72
2022/07/13 13:53:52;;;;;;;1.67;0.70;;;;;;;;;;5057490;28;20111;-72
2022/07/13 13:56:18;;;;;;;2.13;0.83;;;;;;;;;;5057414;28;20285;-70
2022/07/13 13:58:43;;;;;;;2.35;0.90;;;;;;;;;;5061933;28;20758;-72
2022/07/13 14:01:08;;;;;;;2.65;0.90;;;;;;;;;;5059229;28;20477;-68
2022/07/13 14:03:34;;;;;;;0.83;0.80;;;;;;;;;;5058359;28;20387;-69
2022/07/13 14:06:00;;;;;;;2.55;0.90;;;;;;;;;;5060666;28;20021;-70
2022/07/13 14:08:25;;;;;;;1.92;0.93;;;;;;;;;;5061133;28;20229;-70
2022/07/13 14:10:51;;;;;;;2.40;1.00;;;;;;;;;;5061314;28;20466;-70
2022/07/13 14:13:16;;;;;;;1.45;0.90;;;;;;;;;;5063085;28;20178;-70
2022/07/13 14:15:41;;;;;;;4.20;0.90;;;;;;;;;;5064779;28;20107;-73
2022/07/13 14:18:07;;;;;;;1.05;0.90;;;;;;;;;;5064270;28;20104;-74
2022/07/13 14:20:32;;;;;;;1.87;0.80;;;;;;;;;;5064284;28;20486;-70
2022/07/13 14:22:57;;;;;;;5.07;0.98;;;;;;;;;;5061647;28;20275;-72
2022/07/13 14:25:23;;;;;;;3.53;1.15;;;;;;;;;;5064691;28;20025;-73
2022/07/13 14:27:49;;;;;;;3.30;1.02;;;;;;;;;;5064731;28;20300;-71
2022/07/13 14:30:14;;;;;;;2.75;0.80;;;;;;;;;;5062628;28;20024;-71
2022/07/13 14:32:40;;;;;;;2.00;0.80;;;;;;;;;;5065356;28;20055;-73
2022/07/13 14:35:07;;;;;;;0.80;0.80;;;;;;;;;;5062392;28;20039;-72
2022/07/13 14:37:32;;;;;;;0.95;0.82;;;;;;;;;;5062981;28;20035;-71
2022/07/13 14:39:58;;;;;;;1.73;0.80;;;;;;;;;;5061652;28;20028;-70
2022/07/13 14:42:23;;;;;;;1.88;1.00;;;;;;;;;;5067540;28;20277;-74
2022/07/13 14:44:49;;;;;;;0.88;0.80;;;;;;;;;;5063592;28;20082;-69
2022/07/13 14:47:14;;;;;;;1.67;0.88;;;;;;;;;;5068210;28;20039;-69
2022/07/13 14:49:40;;;;;;;1.50;1.00;;;;;;;;;;5067103;28;20101;-70
2022/07/13 14:52:05;;;;;;;2.50;0.95;;;;;;;;;;5064673;28;20024;-69
2022/07/13 14:54:30;;;;;;;0.80;0.80;;;;;;;;;;5076698;28;20024;-70